ロンドン/ヒースロー の空港の天気 - METARとTAF

ロンドン・ヒースロー空港 ( EGLL / LHR ) - イギリス ロンドン
飛行場実況気象(Metar)
観測時間10/19 19:20 BST (10/19 18:20 UTC)
風向・風速北北西 2m/s
視程10km以上
天気現象
なし
気温12℃
湿度71%
気圧1027hPa
METAREGLL 191820Z AUTO 34003KT 9999 NCD 12/07 Q1027 NOSIG
過去の天気等 Google飛行場航空写真 Wunderground天気予報

過去48時間のMETAR

飛行場予報(TAF)
発表時間: 10/19 17:55 BST (10/19 16:55 UTC)
予報対象時間: 19日19時 BST ~ 21日1時 BST
風向・風速不定 2m/s
視程10km以上
なし
19日22時 BST ~ 20日1時 BST に徐々に
視程7000m
20日1時 BST ~ 20日10時 BST に一時的に
視程3000m
天気現象もや 地霧
20日3時 BST から 確率 30% で
視程400m
天気現象
20日10時 BST ~ 20日13時 BST に徐々に
視程10km以上
なし
20日21時 BST ~ 20日24時 BST に徐々に
視程6000m
TAF EGLL 191655Z 1918/2024 VRB03KT CAVOK
BECMG 1921/1924 7000
TEMPO 2000/2009 3000 BR MIFG
PROB30 2002/2008 0400 FG VV///
BECMG 2009/2012 CAVOK
BECMG 2020/2023 6000